LFPN

Toussus-le-Noble Airport

Airport
ICAO code
LFPN
IATA Code
TNF
Summary
ICAO Region
EUR
ICAO Territory
Location

, Ile-de-France

Serving
Toussus-le-Noble
Elevation
538 ft
Coordinates
48° 45' 7" N , 2° 6' 22" E
Metar
Observation
LFPN 030200Z AUTO 05010KT 020V090 8000 OVC008 03/02 Q1016 TEMPO 1200 -SNRA BECMG BKN012
Station
Toussus Le Noble
Date/Time
2022-12-03 02:00:00
Wind direction
50°
Wind speed
10 kts
Lowest cloud amount
overcast
Temperature
3°C
Dew point
2°C
Humidity
93%
QNH
1016 hPa
Weather condition
n/a

Runways

Designator Length Width Surface Rops
07R/25L 1050 30 ASP No/No
07L/25R 1100 30 ASP No/No

Airport map

Aerial View

SKYbrary Partners:

Safety knowledge contributed by: